createdAt,value
2019-05-07T00:00:22.153Z,58.55
2019-05-07T00:02:28.817Z,58.73
2019-05-07T00:04:33.573Z,58.66
2019-05-07T00:06:37.477Z,58.70
2019-05-07T00:08:44.605Z,58.82
2019-05-07T00:10:46.874Z,59.04
2019-05-07T00:12:52.045Z,59.41
2019-05-07T00:15:01.274Z,59.32
2019-05-07T00:17:02.217Z,59.39
2019-05-07T00:19:07.308Z,59.66
2019-05-07T00:21:12.623Z,59.88
2019-05-07T00:23:17.434Z,59.96
2019-05-07T00:25:22.891Z,60.18
2019-05-07T00:27:27.723Z,60.26
2019-05-07T00:29:32.250Z,60.37
2019-05-07T00:31:36.177Z,60.42
2019-05-07T00:33:39.941Z,60.58
2019-05-07T00:35:57.276Z,60.72
2019-05-07T00:38:04.889Z,60.83
2019-05-07T00:40:27.032Z,60.91
2019-05-07T00:42:56.005Z,60.98
2019-05-07T00:45:14.350Z,61.01
2019-05-07T00:47:07.888Z,61.13
2019-05-07T00:49:12.804Z,61.23
2019-05-07T00:51:42.423Z,61.30
2019-05-07T00:53:46.399Z,61.30
2019-05-07T00:55:52.456Z,61.30
2019-05-07T00:57:55.683Z,61.29
2019-05-07T00:59:59.478Z,61.42
2019-05-07T01:02:03.769Z,61.52
2019-05-07T01:04:07.605Z,61.64
2019-05-07T01:06:12.861Z,61.70
2019-05-07T01:08:16.851Z,61.64
2019-05-07T01:10:22.345Z,61.71
2019-05-07T01:12:26.087Z,61.74
2019-05-07T01:14:29.899Z,61.78
2019-05-07T01:16:33.677Z,61.80
2019-05-07T01:18:37.566Z,61.82
2019-05-07T01:20:42.364Z,61.93
2019-05-07T01:22:47.343Z,61.93
2019-05-07T01:24:52.550Z,62.00
2019-05-07T01:26:57.575Z,62.22
2019-05-07T01:29:02.967Z,62.49
2019-05-07T01:31:08.086Z,62.57
2019-05-07T01:33:20.116Z,62.58
2019-05-07T01:35:56.297Z,62.72
2019-05-07T01:38:00.016Z,62.86
2019-05-07T01:40:04.248Z,62.80
2019-05-07T01:42:09.158Z,62.84
2019-05-07T01:44:12.982Z,62.90
2019-05-07T01:46:16.861Z,62.95
2019-05-07T01:48:23.029Z,62.96
2019-05-07T01:50:26.972Z,62.97
2019-05-07T01:52:33.010Z,63.03
2019-05-07T01:54:36.316Z,63.03
2019-05-07T01:56:40.033Z,62.95
2019-05-07T01:58:43.846Z,62.85
2019-05-07T02:00:48.661Z,62.84
2019-05-07T02:03:02.836Z,62.79
2019-05-07T02:05:29.994Z,62.75
2019-05-07T02:07:38.953Z,62.63
2019-05-07T02:10:17.178Z,62.69
2019-05-07T02:12:25.294Z,62.69
2019-05-07T02:14:29.068Z,62.79
2019-05-07T02:16:33.873Z,62.93
2019-05-07T02:18:37.610Z,63.01
2019-05-07T02:20:42.711Z,63.00
2019-05-07T02:22:46.516Z,63.09
2019-05-07T02:24:52.176Z,63.08
2019-05-07T02:26:55.808Z,63.07
2019-05-07T02:28:59.612Z,63.03
2019-05-07T02:31:04.239Z,62.94
2019-05-07T02:33:08.132Z,62.88
2019-05-07T02:35:13.435Z,62.95
2019-05-07T02:37:26.196Z,62.91
2019-05-07T02:39:35.532Z,62.87
2019-05-07T02:41:39.384Z,62.92
2019-05-07T02:43:46.438Z,62.94
2019-05-07T02:46:25.585Z,63.06
2019-05-07T02:48:15.971Z,63.05
2019-05-07T02:50:43.651Z,63.06
2019-05-07T02:52:58.059Z,63.11
2019-05-07T02:55:16.358Z,63.24
2019-05-07T02:57:20.097Z,63.37
2019-05-07T02:59:23.858Z,63.51
2019-05-07T03:01:27.845Z,63.74
2019-05-07T03:03:33.473Z,63.82
2019-05-07T03:05:37.300Z,63.87
2019-05-07T03:07:42.755Z,63.92
2019-05-07T03:09:46.783Z,64.04
2019-05-07T03:11:52.896Z,64.10
2019-05-07T03:13:57.093Z,64.12
2019-05-07T03:16:03.735Z,64.18
2019-05-07T03:18:06.540Z,64.23
2019-05-07T03:20:14.531Z,64.33
2019-05-07T03:22:18.306Z,64.41
2019-05-07T03:24:43.178Z,64.46
2019-05-07T03:26:46.510Z,64.59
2019-05-07T03:28:56.334Z,64.67
2019-05-07T03:31:06.777Z,64.78
2019-05-07T03:33:17.965Z,64.86
2019-05-07T03:35:36.408Z,64.83
2019-05-07T03:37:36.757Z,64.90
2019-05-07T03:39:43.251Z,64.91
2019-05-07T03:41:46.079Z,64.99
2019-05-07T03:43:52.598Z,65.00
2019-05-07T03:46:14.230Z,64.98
2019-05-07T03:48:20.023Z,64.95
2019-05-07T03:50:24.742Z,64.84
2019-05-07T03:52:28.669Z,64.80
2019-05-07T03:54:33.948Z,64.79
2019-05-07T03:56:38.102Z,64.91
2019-05-07T03:58:43.407Z,64.97
2019-05-07T04:00:47.460Z,65.02
2019-05-07T04:02:52.779Z,65.16
2019-05-07T04:04:56.729Z,65.17
2019-05-07T04:07:03.472Z,65.20
2019-05-07T04:09:06.843Z,65.46
2019-05-07T04:11:13.446Z,65.26
2019-05-07T04:13:16.202Z,65.20
2019-05-07T04:15:23.088Z,65.11
2019-05-07T04:17:27.123Z,64.99
2019-05-07T04:19:32.913Z,65.02
2019-05-07T04:21:36.737Z,65.03
2019-05-07T04:23:43.271Z,65.02
2019-05-07T04:26:08.378Z,65.08
2019-05-07T04:28:18.026Z,65.13
2019-05-07T04:30:23.490Z,65.04
2019-05-07T04:32:33.684Z,65.06
2019-05-07T04:35:03.941Z,65.18
2019-05-07T04:37:07.968Z,65.32
2019-05-07T04:39:13.275Z,65.19
2019-05-07T04:41:17.327Z,65.20
2019-05-07T04:43:23.412Z,65.21
2019-05-07T04:45:26.723Z,65.26
2019-05-07T04:47:42.472Z,65.28
2019-05-07T04:49:36.032Z,65.19
2019-05-07T04:51:58.866Z,65.06
2019-05-07T04:54:03.677Z,64.91
2019-05-07T04:56:07.729Z,64.77
2019-05-07T04:58:14.076Z,64.87
2019-05-07T05:00:18.735Z,64.99
2019-05-07T05:02:24.454Z,64.97
2019-05-07T05:04:31.484Z,65.00
2019-05-07T05:06:35.833Z,64.74
2019-05-07T05:08:39.765Z,64.72
2019-05-07T05:10:43.639Z,64.65
2019-05-07T05:12:47.450Z,64.72
2019-05-07T05:14:52.432Z,64.76
2019-05-07T05:16:56.279Z,64.80
2019-05-07T05:19:02.380Z,64.86
2019-05-07T05:21:13.585Z,64.88
2019-05-07T05:23:42.006Z,64.79
2019-05-07T05:25:46.823Z,64.77
2019-05-07T05:27:52.416Z,64.52
2019-05-07T05:29:56.206Z,64.34
2019-05-07T05:32:02.216Z,64.26
2019-05-07T05:34:05.605Z,64.15
2019-05-07T05:36:09.502Z,63.91
2019-05-07T05:38:13.322Z,63.80
2019-05-07T05:40:17.443Z,63.68
2019-05-07T05:42:34.671Z,63.56
2019-05-07T05:44:41.638Z,63.56
2019-05-07T05:46:45.043Z,63.65
2019-05-07T05:48:52.014Z,63.77
2019-05-07T05:51:14.554Z,63.67
2019-05-07T05:53:27.683Z,63.68
2019-05-07T05:55:32.167Z,63.59
2019-05-07T05:57:55.590Z,63.52
2019-05-07T06:00:17.214Z,63.46
2019-05-07T06:02:36.662Z,63.33
2019-05-07T06:04:59.404Z,63.18
2019-05-07T06:07:14.786Z,63.13
2019-05-07T06:09:42.271Z,63.03
2019-05-07T06:12:08.457Z,62.91
2019-05-07T06:14:27.443Z,62.83
2019-05-07T06:16:36.700Z,62.74
2019-05-07T06:18:50.559Z,62.70
2019-05-07T06:21:12.556Z,62.70
2019-05-07T06:23:32.767Z,62.54
2019-05-07T06:25:36.076Z,62.62
2019-05-07T06:27:41.732Z,62.47
2019-05-07T06:29:46.356Z,62.36
2019-05-07T06:32:02.862Z,62.21
2019-05-07T06:34:06.653Z,62.03
2019-05-07T06:36:12.524Z,61.82
2019-05-07T06:38:16.361Z,61.60
2019-05-07T06:40:32.127Z,61.41
2019-05-07T06:42:57.910Z,61.30
2019-05-07T06:45:06.631Z,61.09
2019-05-07T06:47:10.435Z,60.68
2019-05-07T06:49:14.277Z,60.30
2019-05-07T06:51:18.118Z,59.94
2019-05-07T06:53:22.271Z,59.71
2019-05-07T06:55:26.119Z,59.30
2019-05-07T06:57:32.981Z,59.04
2019-05-07T06:59:45.080Z,59.12
2019-05-07T07:02:02.196Z,58.83
2019-05-07T07:04:27.338Z,58.78
2019-05-07T07:06:36.571Z,58.47
2019-05-07T07:08:48.958Z,58.45
2019-05-07T07:11:17.741Z,58.30
2019-05-07T07:13:23.006Z,57.98
2019-05-07T07:15:26.801Z,57.83
2019-05-07T07:17:32.603Z,57.81
2019-05-07T07:19:36.367Z,56.99
2019-05-07T07:21:42.080Z,56.67
2019-05-07T07:23:45.620Z,56.46
2019-05-07T07:25:49.497Z,55.99
2019-05-07T07:27:53.240Z,55.06
2019-05-07T07:30:03.344Z,54.52
2019-05-07T07:32:07.793Z,54.57
2019-05-07T07:34:13.011Z,54.47
2019-05-07T07:36:17.296Z,53.97
2019-05-07T07:38:33.376Z,53.97
2019-05-07T07:40:44.289Z,53.62
2019-05-07T07:42:48.123Z,52.82
2019-05-07T07:45:12.398Z,52.50
2019-05-07T07:47:16.201Z,52.12
2019-05-07T07:49:22.089Z,51.71
2019-05-07T07:51:38.098Z,51.07
2019-05-07T07:53:35.179Z,50.85
2019-05-07T07:56:02.590Z,50.71
2019-05-07T07:58:34.280Z,50.66
2019-05-07T08:00:52.203Z,50.12
2019-05-07T08:02:58.999Z,50.01
2019-05-07T08:05:02.850Z,49.31
2019-05-07T08:07:07.633Z,47.91
2019-05-07T08:09:13.070Z,47.83
2019-05-07T08:11:16.880Z,47.59
2019-05-07T08:13:22.936Z,47.00
2019-05-07T08:15:26.914Z,45.87
2019-05-07T08:17:32.654Z,46.00
2019-05-07T08:19:36.441Z,45.83
2019-05-07T08:21:42.068Z,45.81
2019-05-07T08:23:46.091Z,45.94
2019-05-07T08:25:52.547Z,46.24
2019-05-07T08:27:58.253Z,45.85
2019-05-07T08:30:02.989Z,43.68
2019-05-07T08:32:26.272Z,43.20
2019-05-07T08:34:34.435Z,43.12
2019-05-07T08:36:38.260Z,43.65
2019-05-07T08:38:57.336Z,43.58
2019-05-07T08:41:02.743Z,43.71
2019-05-07T08:43:06.963Z,43.66
2019-05-07T08:45:28.951Z,43.29
2019-05-07T08:47:45.695Z,43.53
2019-05-07T08:49:49.507Z,42.87
2019-05-07T08:52:03.564Z,42.63
2019-05-07T08:54:08.789Z,42.87
2019-05-07T08:56:12.995Z,42.91
2019-05-07T08:58:16.887Z,43.20
2019-05-07T09:00:22.728Z,42.77
2019-05-07T09:02:26.644Z,42.68
2019-05-07T09:04:32.757Z,41.93
2019-05-07T09:06:36.255Z,42.07
2019-05-07T09:08:43.493Z,42.12
2019-05-07T09:10:46.678Z,40.35
2019-05-07T09:12:52.476Z,39.88
2019-05-07T09:14:55.935Z,39.89
2019-05-07T09:17:02.167Z,39.42
2019-05-07T09:19:07.467Z,38.69
2019-05-07T09:21:12.631Z,39.35
2019-05-07T09:23:16.528Z,39.63
2019-05-07T09:25:22.315Z,39.27
2019-05-07T09:27:34.447Z,39.89
2019-05-07T09:30:03.670Z,39.40
2019-05-07T09:32:19.260Z,38.54
2019-05-07T09:34:23.815Z,38.27
2019-05-07T09:36:33.408Z,38.19
2019-05-07T09:38:37.154Z,39.15
2019-05-07T09:40:42.123Z,38.70
2019-05-07T09:42:46.007Z,38.34
2019-05-07T09:44:52.931Z,37.74
2019-05-07T09:46:56.729Z,37.52
2019-05-07T09:49:02.925Z,36.91
2019-05-07T09:51:06.048Z,37.31
2019-05-07T09:53:09.827Z,36.30
2019-05-07T09:55:17.355Z,36.88
2019-05-07T09:57:30.093Z,37.13
2019-05-07T09:59:25.165Z,37.06
2019-05-07T10:01:29.060Z,36.75
2019-05-07T10:03:32.896Z,36.52
2019-05-07T10:05:36.789Z,36.60
2019-05-07T10:07:42.712Z,37.09
2019-05-07T10:09:46.571Z,36.44
2019-05-07T10:11:56.973Z,36.16
2019-05-07T10:14:04.558Z,35.25
2019-05-07T10:16:09.501Z,35.00
2019-05-07T10:18:14.962Z,35.39
2019-05-07T10:20:22.553Z,35.17
2019-05-07T10:22:27.596Z,35.11
2019-05-07T10:24:31.784Z,34.37
2019-05-07T10:26:35.952Z,33.84
2019-05-07T10:28:39.780Z,33.37
2019-05-07T10:30:43.718Z,33.15
2019-05-07T10:32:47.627Z,33.32
2019-05-07T10:34:52.531Z,33.97
2019-05-07T10:36:56.533Z,33.30
2019-05-07T10:39:02.390Z,33.91
2019-05-07T10:41:05.976Z,33.50
2019-05-07T10:43:10.848Z,32.53
2019-05-07T10:45:27.586Z,32.89
2019-05-07T10:47:42.478Z,32.92
2019-05-07T10:49:52.633Z,33.11
2019-05-07T10:51:56.499Z,33.54
2019-05-07T10:54:02.259Z,32.59
2019-05-07T10:56:06.149Z,33.13
2019-05-07T10:58:10.115Z,33.71
2019-05-07T11:00:17.384Z,33.57
2019-05-07T11:02:26.314Z,33.75
2019-05-07T11:04:40.310Z,33.35
2019-05-07T11:06:35.870Z,33.04
2019-05-07T11:08:39.591Z,32.61
2019-05-07T11:10:43.598Z,32.56
2019-05-07T11:12:48.355Z,32.64
2019-05-07T11:14:52.190Z,32.50
2019-05-07T11:17:07.974Z,32.49
2019-05-07T11:19:12.904Z,32.47
2019-05-07T11:21:18.559Z,32.53
2019-05-07T11:23:22.357Z,32.71
2019-05-07T11:25:26.213Z,33.00
2019-05-07T11:27:30.026Z,32.25
2019-05-07T11:29:36.590Z,32.47
2019-05-07T11:31:39.299Z,32.34
2019-05-07T11:33:43.096Z,32.49
2019-05-07T11:35:46.980Z,32.83
2019-05-07T11:37:52.200Z,32.95
2019-05-07T11:39:58.069Z,32.71
2019-05-07T11:42:14.607Z,32.75
2019-05-07T11:44:23.060Z,32.69
2019-05-07T11:46:41.570Z,32.95
2019-05-07T11:48:51.198Z,32.84
2019-05-07T11:51:12.286Z,32.90
2019-05-07T11:53:17.238Z,33.17
2019-05-07T11:55:22.393Z,32.94
2019-05-07T11:57:26.105Z,32.49
2019-05-07T11:59:29.866Z,32.80
2019-05-07T12:01:43.509Z,32.62
2019-05-07T12:03:40.041Z,32.64
2019-05-07T12:05:43.829Z,32.80
2019-05-07T12:07:47.651Z,33.01
2019-05-07T12:09:52.707Z,32.98
2019-05-07T12:11:56.674Z,32.86
2019-05-07T12:14:02.020Z,33.18
2019-05-07T12:16:05.966Z,33.37
2019-05-07T12:18:11.981Z,33.43
2019-05-07T12:20:16.431Z,33.41
2019-05-07T12:22:46.539Z,33.56
2019-05-07T12:24:52.161Z,33.38
2019-05-07T12:26:56.031Z,33.16
2019-05-07T12:28:59.828Z,32.86
2019-05-07T12:31:22.595Z,32.51
2019-05-07T12:33:44.383Z,32.27
2019-05-07T12:35:48.181Z,32.43
2019-05-07T12:37:51.947Z,31.97
2019-05-07T12:39:55.752Z,32.01
2019-05-07T12:41:59.550Z,32.02
2019-05-07T12:44:06.209Z,32.02
2019-05-07T12:46:11.936Z,31.66
2019-05-07T12:48:16.797Z,30.94
2019-05-07T12:50:21.971Z,30.70
2019-05-07T12:52:44.696Z,30.57
2019-05-07T12:54:58.907Z,30.59
2019-05-07T12:57:02.728Z,30.79
2019-05-07T12:59:06.588Z,31.08
2019-05-07T13:01:22.130Z,31.28
2019-05-07T13:04:02.513Z,30.78
2019-05-07T13:06:05.823Z,30.92
2019-05-07T13:08:09.631Z,31.02
2019-05-07T13:10:14.449Z,30.68
2019-05-07T13:12:22.189Z,30.78
2019-05-07T13:14:25.975Z,30.79
2019-05-07T13:16:29.781Z,30.93
2019-05-07T13:18:33.617Z,30.12
2019-05-07T13:20:37.479Z,29.81
2019-05-07T13:22:42.740Z,29.29
2019-05-07T13:24:46.587Z,28.35
2019-05-07T13:26:51.794Z,27.48
2019-05-07T13:28:57.120Z,26.62
2019-05-07T13:31:02.392Z,25.96
2019-05-07T13:33:06.343Z,26.44
2019-05-07T13:35:11.930Z,27.10
2019-05-07T13:37:21.946Z,27.85
2019-05-07T13:39:33.190Z,28.11
2019-05-07T13:41:57.114Z,28.43
2019-05-07T13:44:12.360Z,28.45
2019-05-07T13:46:16.350Z,28.54
2019-05-07T13:48:22.535Z,28.48
2019-05-07T13:50:27.617Z,28.32
2019-05-07T13:52:32.971Z,28.58
2019-05-07T13:54:37.097Z,28.78
2019-05-07T13:56:41.972Z,28.89
2019-05-07T13:58:45.876Z,28.77
2019-05-07T14:01:04.912Z,28.96
2019-05-07T14:03:08.818Z,28.97
2019-05-07T14:05:14.345Z,29.27
2019-05-07T14:07:18.212Z,29.15
2019-05-07T14:09:24.336Z,28.93
2019-05-07T14:11:28.374Z,29.26
2019-05-07T14:13:33.914Z,29.31
2019-05-07T14:15:37.770Z,29.31
2019-05-07T14:17:41.553Z,29.04
2019-05-07T14:19:45.296Z,29.21
2019-05-07T14:21:49.100Z,28.88
2019-05-07T14:23:52.920Z,29.42
2019-05-07T14:25:56.648Z,29.60
2019-05-07T14:28:02.287Z,29.74
2019-05-07T14:30:06.496Z,30.07
2019-05-07T14:32:39.302Z,29.73
2019-05-07T14:35:02.985Z,29.97
2019-05-07T14:37:32.566Z,30.09
2019-05-07T14:39:36.280Z,30.25
2019-05-07T14:41:40.101Z,29.62
2019-05-07T14:44:12.203Z,29.47
2019-05-07T14:46:15.889Z,29.11
2019-05-07T14:48:22.577Z,28.89
2019-05-07T14:50:27.598Z,28.65
2019-05-07T14:52:33.854Z,28.94
2019-05-07T14:54:37.106Z,29.46
2019-05-07T14:56:42.868Z,29.41
2019-05-07T14:58:46.829Z,29.48
2019-05-07T15:00:51.822Z,29.38
2019-05-07T15:02:56.747Z,29.08
2019-05-07T15:05:02.642Z,29.20
2019-05-07T15:07:06.194Z,29.70
2019-05-07T15:09:12.119Z,29.88
2019-05-07T15:11:16.103Z,29.77
2019-05-07T15:13:21.807Z,30.08
2019-05-07T15:15:27.763Z,30.15
2019-05-07T15:17:47.220Z,30.16
2019-05-07T15:19:52.097Z,29.71
2019-05-07T15:22:15.034Z,29.58
2019-05-07T15:24:21.951Z,29.56
2019-05-07T15:26:25.481Z,29.80
2019-05-07T15:28:29.283Z,29.59
2019-05-07T15:30:57.904Z,29.78
2019-05-07T15:33:02.227Z,29.71
2019-05-07T15:35:06.511Z,29.67
2019-05-07T15:37:12.306Z,29.68
2019-05-07T15:39:16.223Z,29.73
2019-05-07T15:41:20.147Z,30.07
2019-05-07T15:43:24.319Z,30.16
2019-05-07T15:45:28.161Z,30.20
2019-05-07T15:47:37.900Z,30.03
2019-05-07T15:49:41.887Z,29.88
2019-05-07T15:51:45.734Z,29.48
2019-05-07T15:53:52.509Z,29.54
2019-05-07T15:55:56.195Z,29.80
2019-05-07T15:58:00.357Z,29.73
2019-05-07T16:00:07.435Z,29.82
2019-05-07T16:02:22.566Z,29.96
2019-05-07T16:04:26.351Z,29.95
2019-05-07T16:06:32.211Z,30.03
2019-05-07T16:08:42.540Z,30.18
2019-05-07T16:10:46.521Z,30.25
2019-05-07T16:12:53.054Z,30.23
2019-05-07T16:14:56.555Z,29.82
2019-05-07T16:17:07.144Z,29.47
2019-05-07T16:19:14.645Z,29.67
2019-05-07T16:21:18.391Z,29.72
2019-05-07T16:23:22.226Z,29.61
2019-05-07T16:25:26.007Z,29.49
2019-05-07T16:27:31.637Z,29.46
2019-05-07T16:29:35.972Z,29.69
2019-05-07T16:31:39.687Z,29.95
2019-05-07T16:33:43.480Z,30.08
2019-05-07T16:35:48.317Z,30.20
2019-05-07T16:37:52.307Z,30.32
2019-05-07T16:39:56.028Z,30.08
2019-05-07T16:42:01.855Z,29.91
2019-05-07T16:44:05.824Z,29.89
2019-05-07T16:46:11.793Z,30.11
2019-05-07T16:48:15.026Z,30.16
2019-05-07T16:50:19.008Z,30.21
2019-05-07T16:52:22.839Z,30.33
2019-05-07T16:54:26.631Z,30.41
2019-05-07T16:56:30.433Z,30.42
2019-05-07T16:58:38.739Z,30.56
2019-05-07T17:00:47.498Z,30.45
2019-05-07T17:02:52.452Z,30.76
2019-05-07T17:05:05.556Z,30.93
2019-05-07T17:07:13.200Z,30.93
2019-05-07T17:09:16.615Z,30.73
2019-05-07T17:11:22.635Z,30.63
2019-05-07T17:13:27.493Z,30.82
2019-05-07T17:15:32.933Z,30.97
2019-05-07T17:17:36.797Z,30.96
2019-05-07T17:19:42.487Z,30.85
2019-05-07T17:21:46.065Z,30.65
2019-05-07T17:23:51.756Z,30.67
2019-05-07T17:25:55.571Z,30.84
2019-05-07T17:28:00.387Z,30.96
2019-05-07T17:30:04.372Z,30.81
2019-05-07T17:32:08.261Z,30.79
2019-05-07T17:34:12.072Z,30.78
2019-05-07T17:36:15.836Z,30.77
2019-05-07T17:38:19.762Z,30.73
2019-05-07T17:40:23.666Z,30.67
2019-05-07T17:42:27.482Z,30.77
2019-05-07T17:44:32.405Z,31.02
2019-05-07T17:46:36.379Z,31.21
2019-05-07T17:48:42.805Z,31.36
2019-05-07T17:50:52.488Z,31.47
2019-05-07T17:52:56.227Z,31.58
2019-05-07T17:55:02.122Z,31.52
2019-05-07T17:57:05.635Z,32.07
2019-05-07T17:59:09.515Z,32.98
2019-05-07T18:01:13.293Z,33.38
2019-05-07T18:03:32.447Z,33.77
2019-05-07T18:05:36.521Z,34.11
2019-05-07T18:07:42.029Z,34.28
2019-05-07T18:09:45.811Z,34.72
2019-05-07T18:11:49.546Z,35.21
2019-05-07T18:13:54.328Z,35.92
2019-05-07T18:16:04.310Z,36.34
2019-05-07T18:18:08.810Z,36.72
2019-05-07T18:20:12.948Z,36.99
2019-05-07T18:22:17.031Z,37.45
2019-05-07T18:24:22.369Z,38.05
2019-05-07T18:26:29.909Z,38.65
2019-05-07T18:28:32.507Z,38.62
2019-05-07T18:30:37.349Z,38.89
2019-05-07T18:32:45.012Z,39.03
2019-05-07T18:34:48.734Z,39.21
2019-05-07T18:36:53.120Z,39.57
2019-05-07T18:38:56.941Z,39.61
2019-05-07T18:41:02.620Z,39.70
2019-05-07T18:43:07.293Z,39.90
2019-05-07T18:45:12.513Z,39.85
2019-05-07T18:47:16.342Z,39.79
2019-05-07T18:49:20.050Z,39.82
2019-05-07T18:51:24.019Z,40.01
2019-05-07T18:53:27.756Z,40.18
2019-05-07T18:55:33.078Z,40.40
2019-05-07T18:57:37.092Z,40.66
2019-05-07T18:59:42.298Z,40.82
2019-05-07T19:01:47.158Z,40.88
2019-05-07T19:03:52.546Z,41.02
2019-05-07T19:05:56.674Z,41.05
2019-05-07T19:08:07.149Z,40.97
2019-05-07T19:10:06.356Z,41.07
2019-05-07T19:12:13.136Z,41.01
2019-05-07T19:14:17.035Z,41.12
2019-05-07T19:16:22.893Z,41.16
2019-05-07T19:18:26.328Z,41.26
2019-05-07T19:20:32.454Z,41.34
2019-05-07T19:22:38.004Z,41.36
2019-05-07T19:24:47.286Z,41.43
2019-05-07T19:26:46.755Z,41.55
2019-05-07T19:28:50.572Z,41.78
2019-05-07T19:30:54.432Z,42.02
2019-05-07T19:32:58.285Z,42.10
2019-05-07T19:35:02.083Z,42.37
2019-05-07T19:37:05.951Z,42.59
2019-05-07T19:39:12.487Z,42.83
2019-05-07T19:41:15.637Z,42.99
2019-05-07T19:43:19.445Z,43.11
2019-05-07T19:45:24.523Z,43.33
2019-05-07T19:47:28.557Z,43.70
2019-05-07T19:49:32.656Z,44.03
2019-05-07T19:51:36.515Z,44.45
2019-05-07T19:53:41.960Z,44.78
2019-05-07T19:56:06.905Z,45.12
2019-05-07T19:58:12.028Z,45.36
2019-05-07T20:00:17.635Z,45.67
2019-05-07T20:02:26.881Z,45.98
2019-05-07T20:04:29.621Z,46.18
2019-05-07T20:06:33.413Z,46.30
2019-05-07T20:08:37.131Z,46.32
2019-05-07T20:10:52.931Z,46.34
2019-05-07T20:12:56.699Z,46.54
2019-05-07T20:15:02.669Z,46.61
2019-05-07T20:17:06.019Z,46.74
2019-05-07T20:19:12.083Z,46.90
2019-05-07T20:21:16.135Z,47.07
2019-05-07T20:23:19.854Z,47.42
2019-05-07T20:25:23.632Z,47.54
2019-05-07T20:27:27.451Z,47.65
2019-05-07T20:29:32.333Z,47.84
2019-05-07T20:31:36.341Z,47.91
2019-05-07T20:33:42.253Z,48.06
2019-05-07T20:35:45.812Z,48.20
2019-05-07T20:37:49.627Z,48.44
2019-05-07T20:39:53.415Z,48.62
2019-05-07T20:41:57.209Z,48.67
2019-05-07T20:44:02.882Z,48.59
2019-05-07T20:46:06.454Z,48.77
2019-05-07T20:48:10.276Z,48.83
2019-05-07T20:50:15.456Z,48.92
2019-05-07T20:52:19.269Z,49.01
2019-05-07T20:54:34.363Z,49.02
2019-05-07T20:56:41.945Z,49.06
2019-05-07T20:58:45.720Z,49.01
2019-05-07T21:00:52.613Z,48.85
2019-05-07T21:03:15.097Z,48.86
2019-05-07T21:05:18.982Z,49.05
2019-05-07T21:07:22.707Z,49.25
2019-05-07T21:09:26.502Z,49.40
2019-05-07T21:11:32.339Z,49.51
2019-05-07T21:13:35.761Z,49.63
2019-05-07T21:15:41.756Z,49.89
2019-05-07T21:17:45.080Z,50.04
2019-05-07T21:19:48.917Z,50.15
2019-05-07T21:21:52.702Z,50.33
2019-05-07T21:23:56.566Z,50.51
2019-05-07T21:26:02.178Z,50.72
2019-05-07T21:31:12.022Z,50.48
2019-05-07T21:33:27.900Z,50.39
2019-05-07T21:36:25.509Z,50.38
2019-05-07T21:38:46.326Z,50.65
2019-05-07T21:40:50.708Z,50.88
2019-05-07T21:43:02.369Z,51.13
2019-05-07T21:45:10.503Z,51.41
2019-05-07T21:47:24.207Z,51.53
2019-05-07T21:49:28.815Z,51.70
2019-05-07T21:51:33.626Z,51.82
2019-05-07T21:54:12.188Z,52.00
2019-05-07T22:00:09.388Z,52.36
2019-05-07T22:02:32.665Z,52.39
2019-05-07T22:04:58.795Z,52.80
2019-05-07T22:07:33.565Z,53.06
2019-05-07T22:09:43.386Z,53.17
2019-05-07T22:11:48.497Z,53.05
2019-05-07T22:14:02.119Z,53.11
2019-05-07T22:16:40.868Z,53.18
2019-05-07T22:18:55.485Z,53.15
2019-05-07T22:21:04.258Z,53.09
2019-05-07T22:23:27.469Z,53.10
2019-05-07T22:48:12.237Z,54.16
2019-05-07T23:01:25.666Z,53.28
2019-05-07T23:03:32.215Z,53.02
2019-05-07T23:05:39.296Z,52.97
2019-05-07T23:07:47.859Z,53.06
2019-05-07T23:09:55.557Z,53.12
2019-05-07T23:12:22.478Z,53.08
2019-05-07T23:14:32.992Z,53.01
2019-05-07T23:16:44.056Z,52.92
2019-05-07T23:21:26.108Z,52.99
2019-05-07T23:23:39.183Z,53.01
2019-05-07T23:25:55.392Z,53.11
2019-05-07T23:28:12.505Z,53.29
2019-05-07T23:30:29.477Z,53.33
2019-05-07T23:32:56.833Z,53.46
2019-05-07T23:35:16.728Z,53.49
2019-05-07T23:37:55.147Z,53.63
2019-05-07T23:40:16.366Z,53.73
2019-05-07T23:48:44.826Z,54.06
2019-05-07T23:51:30.083Z,54.26
2019-05-07T23:54:04.495Z,54.38
